sensor_id;sensor_type;location;lat;lon;timestamp;pressure;altitude;pressure_sealevel;temperature;humidity
83444;BME280;73374;41.170;-96.156;2024-03-23T00:57:18;98276.47;;;0.22;62.87
83444;BME280;73374;41.170;-96.156;2024-03-23T01:02:20;98263.97;;;0.16;63.11
83444;BME280;73374;41.170;-96.156;2024-03-23T01:07:22;98281.69;;;0.02;62.41
83444;BME280;73374;41.170;-96.156;2024-03-23T01:12:25;98287.56;;;0.04;62.72
83444;BME280;73374;41.170;-96.156;2024-03-23T01:17:27;98283.53;;;-0.02;62.30
83444;BME280;73374;41.170;-96.156;2024-03-23T01:22:28;98295.50;;;-0.03;62.99
83444;BME280;73374;41.170;-96.156;2024-03-23T01:27:32;98304.88;;;-0.03;62.72
83444;BME280;73374;41.170;-96.156;2024-03-23T01:32:33;98315.53;;;-0.12;62.13
83444;BME280;73374;41.170;-96.156;2024-03-23T01:37:35;98320.91;;;0.01;61.91
83444;BME280;73374;41.170;-96.156;2024-03-23T01:42:38;98326.91;;;-0.01;61.86
83444;BME280;73374;41.170;-96.156;2024-03-23T01:47:40;98319.00;;;-0.13;62.12
83444;BME280;73374;41.170;-96.156;2024-03-23T01:52:42;98326.03;;;-0.18;60.89
83444;BME280;73374;41.170;-96.156;2024-03-23T01:57:45;98325.19;;;-0.19;60.99
83444;BME280;73374;41.170;-96.156;2024-03-23T02:02:47;98333.28;;;-0.28;60.53
83444;BME280;73374;41.170;-96.156;2024-03-23T02:07:48;98342.59;;;-0.46;60.25
83444;BME280;73374;41.170;-96.156;2024-03-23T02:12:52;98354.59;;;-0.48;59.91
83444;BME280;73374;41.170;-96.156;2024-03-23T02:17:53;98372.06;;;-0.39;60.20
83444;BME280;73374;41.170;-96.156;2024-03-23T02:22:55;98387.72;;;-0.46;60.26
83444;BME280;73374;41.170;-96.156;2024-03-23T02:27:57;98389.75;;;-0.54;59.69
83444;BME280;73374;41.170;-96.156;2024-03-23T02:32:59;98389.72;;;-0.73;59.61
83444;BME280;73374;41.170;-96.156;2024-03-23T02:38:02;98398.47;;;-0.79;60.15
83444;BME280;73374;41.170;-96.156;2024-03-23T02:43:04;98383.94;;;-0.97;60.82
83444;BME280;73374;41.170;-96.156;2024-03-23T02:48:06;98396.44;;;-0.91;60.02
83444;BME280;73374;41.170;-96.156;2024-03-23T02:53:09;98395.19;;;-1.01;59.91
83444;BME280;73374;41.170;-96.156;2024-03-23T02:58:10;98389.19;;;-1.00;59.44
83444;BME280;73374;41.170;-96.156;2024-03-23T03:03:12;98388.16;;;-1.16;60.66
83444;BME280;73374;41.170;-96.156;2024-03-23T03:08:15;98399.75;;;-1.30;60.91
83444;BME280;73374;41.170;-96.156;2024-03-23T03:13:17;98409.81;;;-1.27;60.93
83444;BME280;73374;41.170;-96.156;2024-03-23T03:18:18;98397.59;;;-1.40;61.28
83444;BME280;73374;41.170;-96.156;2024-03-23T03:23:22;98406.91;;;-1.39;61.25
83444;BME280;73374;41.170;-96.156;2024-03-23T03:28:23;98406.28;;;-1.44;61.47
83444;BME280;73374;41.170;-96.156;2024-03-23T03:33:24;98402.00;;;-1.44;61.48
83444;BME280;73374;41.170;-96.156;2024-03-23T03:38:27;98384.84;;;-1.39;61.83
83444;BME280;73374;41.170;-96.156;2024-03-23T03:43:28;98378.78;;;-1.58;62.28
83444;BME280;73374;41.170;-96.156;2024-03-23T03:48:30;98366.47;;;-1.47;62.06
83444;BME280;73374;41.170;-96.156;2024-03-23T03:53:33;98377.03;;;-1.56;62.83
83444;BME280;73374;41.170;-96.156;2024-03-23T03:58:35;98371.06;;;-1.35;62.00
83444;BME280;73374;41.170;-96.156;2024-03-23T04:03:36;98374.72;;;-1.20;62.28
83444;BME280;73374;41.170;-96.156;2024-03-23T04:08:40;98397.06;;;-1.06;61.89
83444;BME280;73374;41.170;-96.156;2024-03-23T04:13:41;98413.03;;;-1.01;61.66
83444;BME280;73374;41.170;-96.156;2024-03-23T04:18:43;98403.47;;;-0.96;60.49
83444;BME280;73374;41.170;-96.156;2024-03-23T04:23:46;98410.09;;;-0.92;61.21
83444;BME280;73374;41.170;-96.156;2024-03-23T04:28:48;98415.66;;;-1.03;61.21
83444;BME280;73374;41.170;-96.156;2024-03-23T04:33:50;98411.47;;;-1.05;60.59
83444;BME280;73374;41.170;-96.156;2024-03-23T04:38:53;98412.38;;;-1.06;61.74
83444;BME280;73374;41.170;-96.156;2024-03-23T04:43:55;98408.50;;;-1.15;61.34
83444;BME280;73374;41.170;-96.156;2024-03-23T04:48:56;98406.00;;;-1.16;61.25
83444;BME280;73374;41.170;-96.156;2024-03-23T04:54:00;98416.56;;;-1.26;61.92
83444;BME280;73374;41.170;-96.156;2024-03-23T04:59:01;98435.38;;;-1.28;62.28
83444;BME280;73374;41.170;-96.156;2024-03-23T05:04:03;98428.94;;;-1.16;62.14
83444;BME280;73374;41.170;-96.156;2024-03-23T05:09:06;98434.41;;;-1.04;61.72
83444;BME280;73374;41.170;-96.156;2024-03-23T05:14:08;98451.03;;;-0.95;62.18
83444;BME280;73374;41.170;-96.156;2024-03-23T05:19:10;98447.91;;;-1.02;61.95
83444;BME280;73374;41.170;-96.156;2024-03-23T05:24:13;98453.81;;;-1.43;62.91
83444;BME280;73374;41.170;-96.156;2024-03-23T05:29:15;98441.50;;;-1.54;63.01
83444;BME280;73374;41.170;-96.156;2024-03-23T05:34:16;98459.09;;;-1.48;63.26
83444;BME280;73374;41.170;-96.156;2024-03-23T05:39:20;98461.22;;;-1.59;63.21
83444;BME280;73374;41.170;-96.156;2024-03-23T05:44:21;98454.69;;;-1.66;64.26
83444;BME280;73374;41.170;-96.156;2024-03-23T05:49:23;98455.47;;;-1.64;63.71
83444;BME280;73374;41.170;-96.156;2024-03-23T05:54:26;98455.34;;;-1.61;64.26
83444;BME280;73374;41.170;-96.156;2024-03-23T05:59:28;98464.31;;;-1.74;64.27
83444;BME280;73374;41.170;-96.156;2024-03-23T06:04:30;98474.69;;;-1.79;64.48
83444;BME280;73374;41.170;-96.156;2024-03-23T06:09:33;98490.03;;;-1.80;65.33
83444;BME280;73374;41.170;-96.156;2024-03-23T06:14:35;98500.34;;;-1.84;65.34
83444;BME280;73374;41.170;-96.156;2024-03-23T06:19:36;98502.00;;;-2.06;66.62
83444;BME280;73374;41.170;-96.156;2024-03-23T06:24:39;98477.44;;;-2.07;67.03
83444;BME280;73374;41.170;-96.156;2024-03-23T06:29:41;98468.84;;;-2.28;67.78
83444;BME280;73374;41.170;-96.156;2024-03-23T06:34:43;98466.50;;;-2.34;68.79
83444;BME280;73374;41.170;-96.156;2024-03-23T06:39:46;98460.75;;;-2.39;68.98
83444;BME280;73374;41.170;-96.156;2024-03-23T06:44:47;98465.22;;;-2.46;69.92
83444;BME280;73374;41.170;-96.156;2024-03-23T06:49:49;98465.44;;;-2.52;70.74
83444;BME280;73374;41.170;-96.156;2024-03-23T06:54:52;98463.75;;;-2.28;70.42
83444;BME280;73374;41.170;-96.156;2024-03-23T06:59:54;98446.44;;;-2.18;70.54
83444;BME280;73374;41.170;-96.156;2024-03-23T07:04:55;98456.19;;;-2.06;70.44
83444;BME280;73374;41.170;-96.156;2024-03-23T07:09:59;98450.97;;;-2.03;70.19
83444;BME280;73374;41.170;-96.156;2024-03-23T07:15:00;98460.03;;;-1.96;70.05
83444;BME280;73374;41.170;-96.156;2024-03-23T07:20:02;98453.03;;;-1.89;69.46
83444;BME280;73374;41.170;-96.156;2024-03-23T07:25:06;98456.41;;;-1.89;69.13
83444;BME280;73374;41.170;-96.156;2024-03-23T07:30:08;98459.22;;;-1.96;68.89
83444;BME280;73374;41.170;-96.156;2024-03-23T07:35:10;98435.06;;;-2.08;69.26
83444;BME280;73374;41.170;-96.156;2024-03-23T07:40:13;98433.06;;;-2.23;70.06
83444;BME280;73374;41.170;-96.156;2024-03-23T07:45:14;98436.09;;;-2.14;70.08
83444;BME280;73374;41.170;-96.156;2024-03-23T07:50:16;98454.97;;;-2.19;70.17
83444;BME280;73374;41.170;-96.156;2024-03-23T07:55:19;98452.41;;;-2.19;69.12
83444;BME280;73374;41.170;-96.156;2024-03-23T08:00:21;98456.22;;;-2.31;67.83
83444;BME280;73374;41.170;-96.156;2024-03-23T08:05:23;98461.59;;;-2.38;67.02
83444;BME280;73374;41.170;-96.156;2024-03-23T08:10:28;98447.81;;;-2.33;65.84
83444;BME280;73374;41.170;-96.156;2024-03-23T08:15:30;98461.00;;;-2.47;65.82
83444;BME280;73374;41.170;-96.156;2024-03-23T08:20:32;98471.91;;;-2.43;65.02
83444;BME280;73374;41.170;-96.156;2024-03-23T08:25:35;98481.00;;;-2.61;64.79
83444;BME280;73374;41.170;-96.156;2024-03-23T08:30:37;98488.13;;;-2.70;64.04
83444;BME280;73374;41.170;-96.156;2024-03-23T08:35:39;98485.91;;;-2.55;63.59
83444;BME280;73374;41.170;-96.156;2024-03-23T08:40:42;98492.03;;;-2.60;64.11
83444;BME280;73374;41.170;-96.156;2024-03-23T08:45:43;98482.69;;;-2.60;64.59
83444;BME280;73374;41.170;-96.156;2024-03-23T08:50:45;98487.84;;;-2.63;65.21
83444;BME280;73374;41.170;-96.156;2024-03-23T08:55:54;98487.28;;;-2.71;65.80
83444;BME280;73374;41.170;-96.156;2024-03-23T09:00:57;98479.88;;;-2.77;66.26
83444;BME280;73374;41.170;-96.156;2024-03-23T09:06:07;98457.84;;;-2.78;66.17
83444;BME280;73374;41.170;-96.156;2024-03-23T09:11:11;98458.38;;;-2.93;66.29
83444;BME280;73374;41.170;-96.156;2024-03-23T09:16:13;98444.03;;;-2.96;66.40
83444;BME280;73374;41.170;-96.156;2024-03-23T09:21:14;98456.81;;;-2.97;66.55
83444;BME280;73374;41.170;-96.156;2024-03-23T09:26:18;98460.63;;;-3.11;67.28
83444;BME280;73374;41.170;-96.156;2024-03-23T09:31:19;98448.72;;;-3.09;67.24
83444;BME280;73374;41.170;-96.156;2024-03-23T09:36:21;98447.66;;;-3.03;66.74
83444;BME280;73374;41.170;-96.156;2024-03-23T09:41:24;98440.03;;;-3.03;65.91
83444;BME280;73374;41.170;-96.156;2024-03-23T09:46:26;98435.31;;;-3.14;65.63
83444;BME280;73374;41.170;-96.156;2024-03-23T09:51:28;98430.53;;;-3.23;66.11
83444;BME280;73374;41.170;-96.156;2024-03-23T09:56:31;98423.41;;;-3.38;66.37
83444;BME280;73374;41.170;-96.156;2024-03-23T10:01:33;98418.88;;;-3.28;65.22
83444;BME280;73374;41.170;-96.156;2024-03-23T10:06:35;98433.06;;;-3.23;65.34
83444;BME280;73374;41.170;-96.156;2024-03-23T10:11:38;98426.34;;;-3.24;63.95
83444;BME280;73374;41.170;-96.156;2024-03-23T10:16:40;98406.69;;;-3.19;60.73
83444;BME280;73374;41.170;-96.156;2024-03-23T10:21:52;98413.72;;;-3.27;62.91
83444;BME280;73374;41.170;-96.156;2024-03-23T10:27:02;98403.41;;;-3.22;62.09
83444;BME280;73374;41.170;-96.156;2024-03-23T10:32:09;98442.56;;;-3.28;62.29
83444;BME280;73374;41.170;-96.156;2024-03-23T10:37:11;98448.28;;;-3.21;61.21
83444;BME280;73374;41.170;-96.156;2024-03-23T10:42:14;98435.72;;;-3.26;60.96
83444;BME280;73374;41.170;-96.156;2024-03-23T10:47:16;98444.16;;;-3.25;62.29
83444;BME280;73374;41.170;-96.156;2024-03-23T10:52:17;98445.16;;;-3.29;59.60
83444;BME280;73374;41.170;-96.156;2024-03-23T10:57:25;98430.81;;;-3.32;58.06
83444;BME280;73374;41.170;-96.156;2024-03-23T11:02:29;98444.03;;;-3.49;60.68
83444;BME280;73374;41.170;-96.156;2024-03-23T11:07:31;98451.63;;;-3.47;60.67
83444;BME280;73374;41.170;-96.156;2024-03-23T11:12:35;98459.13;;;-3.43;59.41
83444;BME280;73374;41.170;-96.156;2024-03-23T11:17:36;98480.25;;;-3.42;59.27
83444;BME280;73374;41.170;-96.156;2024-03-23T11:22:41;98477.63;;;-3.39;58.34
83444;BME280;73374;41.170;-96.156;2024-03-23T11:27:45;98472.53;;;-3.39;59.79
83444;BME280;73374;41.170;-96.156;2024-03-23T11:32:47;98497.06;;;-3.38;61.83
83444;BME280;73374;41.170;-96.156;2024-03-23T11:38:02;98481.56;;;-3.57;61.43
83444;BME280;73374;41.170;-96.156;2024-03-23T11:43:06;98493.47;;;-3.59;62.62
83444;BME280;73374;41.170;-96.156;2024-03-23T11:48:09;98518.81;;;-3.57;62.30
83444;BME280;73374;41.170;-96.156;2024-03-23T11:53:15;98500.31;;;-3.61;60.83
83444;BME280;73374;41.170;-96.156;2024-03-23T11:58:19;98491.03;;;-3.62;60.92
83444;BME280;73374;41.170;-96.156;2024-03-23T12:03:21;98491.25;;;-3.70;63.27
83444;BME280;73374;41.170;-96.156;2024-03-23T12:08:23;98507.16;;;-3.65;62.91
83444;BME280;73374;41.170;-96.156;2024-03-23T12:13:27;98502.75;;;-3.58;62.49
83444;BME280;73374;41.170;-96.156;2024-03-23T12:18:30;98522.19;;;-3.57;62.57
83444;BME280;73374;41.170;-96.156;2024-03-23T12:23:31;98486.63;;;-3.57;60.08
83444;BME280;73374;41.170;-96.156;2024-03-23T12:28:35;98457.09;;;-3.59;59.96
83444;BME280;73374;41.170;-96.156;2024-03-23T12:33:37;98473.00;;;-3.54;60.78
83444;BME280;73374;41.170;-96.156;2024-03-23T12:38:38;98451.72;;;-3.50;60.19
83444;BME280;73374;41.170;-96.156;2024-03-23T12:43:42;98466.28;;;-3.55;59.63
83444;BME280;73374;41.170;-96.156;2024-03-23T12:48:44;98491.31;;;-3.43;60.18
83444;BME280;73374;41.170;-96.156;2024-03-23T12:53:46;98475.22;;;-3.44;59.47
83444;BME280;73374;41.170;-96.156;2024-03-23T12:58:49;98467.81;;;-3.23;58.21
83444;BME280;73374;41.170;-96.156;2024-03-23T13:03:51;98469.53;;;-3.24;59.52
83444;BME280;73374;41.170;-96.156;2024-03-23T13:08:53;98477.78;;;-3.17;58.31
83444;BME280;73374;41.170;-96.156;2024-03-23T13:13:56;98472.47;;;-3.10;59.14
83444;BME280;73374;41.170;-96.156;2024-03-23T13:18:58;98457.22;;;-3.10;57.85
83444;BME280;73374;41.170;-96.156;2024-03-23T13:24:00;98451.72;;;-2.97;57.25
83444;BME280;73374;41.170;-96.156;2024-03-23T13:29:03;98445.41;;;-3.11;57.90
83444;BME280;73374;41.170;-96.156;2024-03-23T13:34:04;98449.66;;;-2.86;56.94
83444;BME280;73374;41.170;-96.156;2024-03-23T13:39:06;98429.63;;;-2.70;57.30
83444;BME280;73374;41.170;-96.156;2024-03-23T13:44:10;98422.22;;;-1.61;53.78
83444;BME280;73374;41.170;-96.156;2024-03-23T13:49:25;98426.91;;;-1.72;54.81
83444;BME280;73374;41.170;-96.156;2024-03-23T13:54:27;98410.19;;;-1.79;54.92
83444;BME280;73374;41.170;-96.156;2024-03-23T13:59:30;98406.69;;;-1.99;54.70
83444;BME280;73374;41.170;-96.156;2024-03-23T14:04:32;98418.97;;;-1.23;53.04
83444;BME280;73374;41.170;-96.156;2024-03-23T14:09:33;98421.00;;;-1.51;53.58
83444;BME280;73374;41.170;-96.156;2024-03-23T14:14:36;98439.91;;;-0.53;52.47
83444;BME280;73374;41.170;-96.156;2024-03-23T14:19:38;98433.94;;;-0.93;53.06
83444;BME280;73374;41.170;-96.156;2024-03-23T14:24:40;98444.13;;;-0.52;51.96
83444;BME280;73374;41.170;-96.156;2024-03-23T14:29:45;98446.09;;;-0.39;52.00
83444;BME280;73374;41.170;-96.156;2024-03-23T14:34:47;98448.28;;;-0.91;54.12
83444;BME280;73374;41.170;-96.156;2024-03-23T14:39:49;98447.41;;;-1.32;53.88
83444;BME280;73374;41.170;-96.156;2024-03-23T14:44:52;98408.47;;;-0.35;52.68
83444;BME280;73374;41.170;-96.156;2024-03-23T14:49:54;98409.53;;;-0.02;53.00
83444;BME280;73374;41.170;-96.156;2024-03-23T14:54:55;98387.34;;;-0.57;54.06
83444;BME280;73374;41.170;-96.156;2024-03-23T14:59:59;98413.63;;;-1.37;54.76
83444;BME280;73374;41.170;-96.156;2024-03-23T15:05:00;98418.75;;;0.03;52.67
83444;BME280;73374;41.170;-96.156;2024-03-23T15:10:02;98411.28;;;-0.60;53.51
83444;BME280;73374;41.170;-96.156;2024-03-23T15:15:06;98415.13;;;0.07;52.00
83444;BME280;73374;41.170;-96.156;2024-03-23T15:20:09;98415.19;;;0.24;51.73
83444;BME280;73374;41.170;-96.156;2024-03-23T15:25:10;98415.91;;;0.45;51.40
83444;BME280;73374;41.170;-96.156;2024-03-23T15:30:14;98410.28;;;2.99;46.00
83444;BME280;73374;41.170;-96.156;2024-03-23T15:35:15;98407.81;;;2.68;46.33
83444;BME280;73374;41.170;-96.156;2024-03-23T15:40:17;98411.81;;;4.03;45.48
83444;BME280;73374;41.170;-96.156;2024-03-23T15:45:20;98422.75;;;1.15;48.94
83444;BME280;73374;41.170;-96.156;2024-03-23T15:50:22;98415.63;;;3.11;46.08
83444;BME280;73374;41.170;-96.156;2024-03-23T15:55:24;98418.34;;;3.38;44.87
83444;BME280;73374;41.170;-96.156;2024-03-23T16:00:27;98412.97;;;2.36;47.14
83444;BME280;73374;41.170;-96.156;2024-03-23T16:05:29;98413.34;;;1.15;49.04
83444;BME280;73374;41.170;-96.156;2024-03-23T16:10:31;98400.31;;;0.68;50.48
83444;BME280;73374;41.170;-96.156;2024-03-23T16:15:34;98402.88;;;0.85;49.58
83444;BME280;73374;41.170;-96.156;2024-03-23T16:20:36;98413.06;;;1.04;50.16
83444;BME280;73374;41.170;-96.156;2024-03-23T16:25:37;98395.84;;;0.37;50.11
83444;BME280;73374;41.170;-96.156;2024-03-23T16:30:54;98378.72;;;1.26;50.58
83444;BME280;73374;41.170;-96.156;2024-03-23T16:35:58;98389.13;;;1.05;49.91
83444;BME280;73374;41.170;-96.156;2024-03-23T16:41:01;98363.50;;;1.23;49.61
83444;BME280;73374;41.170;-96.156;2024-03-23T16:46:06;98354.69;;;2.08;47.09
83444;BME280;73374;41.170;-96.156;2024-03-23T16:51:11;98364.66;;;0.48;49.43
83444;BME280;73374;41.170;-96.156;2024-03-23T16:56:13;98368.78;;;0.85;50.25
83444;BME280;73374;41.170;-96.156;2024-03-23T17:01:16;98368.09;;;1.98;47.94
83444;BME280;73374;41.170;-96.156;2024-03-23T17:06:18;98355.75;;;1.57;48.96
83444;BME280;73374;41.170;-96.156;2024-03-23T17:11:20;98348.25;;;0.52;48.55
83444;BME280;73374;41.170;-96.156;2024-03-23T17:16:23;98327.34;;;1.29;48.59
83444;BME280;73374;41.170;-96.156;2024-03-23T17:21:25;98315.31;;;1.31;48.84
83444;BME280;73374;41.170;-96.156;2024-03-23T17:26:27;98316.91;;;1.49;48.49
83444;BME280;73374;41.170;-96.156;2024-03-23T17:31:30;98302.34;;;1.01;50.86
83444;BME280;73374;41.170;-96.156;2024-03-23T17:36:31;98290.78;;;1.90;48.46
83444;BME280;73374;41.170;-96.156;2024-03-23T17:41:33;98279.84;;;0.40;50.53
83444;BME280;73374;41.170;-96.156;2024-03-23T17:46:36;98277.66;;;0.32;51.26
83444;BME280;73374;41.170;-96.156;2024-03-23T17:51:38;98292.63;;;0.22;51.92
83444;BME280;73374;41.170;-96.156;2024-03-23T17:56:40;98278.16;;;0.04;51.10
83444;BME280;73374;41.170;-96.156;2024-03-23T18:01:43;98268.41;;;0.12;51.19
83444;BME280;73374;41.170;-96.156;2024-03-23T18:06:44;98241.94;;;0.30;51.09
83444;BME280;73374;41.170;-96.156;2024-03-23T18:11:46;98220.25;;;0.05;51.77
83444;BME280;73374;41.170;-96.156;2024-03-23T18:16:49;98181.75;;;0.25;51.25
83444;BME280;73374;41.170;-96.156;2024-03-23T18:21:51;98145.72;;;0.47;50.00
83444;BME280;73374;41.170;-96.156;2024-03-23T18:26:53;98113.00;;;0.53;49.96
83444;BME280;73374;41.170;-96.156;2024-03-23T18:31:56;98107.53;;;0.44;50.27
83444;BME280;73374;41.170;-96.156;2024-03-23T18:36:58;98089.31;;;0.66;49.98
83444;BME280;73374;41.170;-96.156;2024-03-23T18:41:59;98067.38;;;0.62;49.34
83444;BME280;73374;41.170;-96.156;2024-03-23T18:47:03;98058.41;;;0.70;49.62
83444;BME280;73374;41.170;-96.156;2024-03-23T18:52:04;98037.28;;;0.67;49.40
83444;BME280;73374;41.170;-96.156;2024-03-23T18:57:06;98016.25;;;0.62;50.57
83444;BME280;73374;41.170;-96.156;2024-03-23T19:02:09;97987.75;;;0.53;50.78
83444;BME280;73374;41.170;-96.156;2024-03-23T19:07:11;97985.72;;;0.74;51.78
83444;BME280;73374;41.170;-96.156;2024-03-23T19:12:13;97989.88;;;0.45;51.53
83444;BME280;73374;41.170;-96.156;2024-03-23T19:17:16;98017.97;;;0.93;52.33
83444;BME280;73374;41.170;-96.156;2024-03-23T19:22:18;98032.50;;;0.60;52.46
83444;BME280;73374;41.170;-96.156;2024-03-23T19:27:20;98012.31;;;0.56;52.82
83444;BME280;73374;41.170;-96.156;2024-03-23T19:32:23;98000.00;;;0.63;51.72
83444;BME280;73374;41.170;-96.156;2024-03-23T19:37:25;97979.81;;;0.58;50.71
83444;BME280;73374;41.170;-96.156;2024-03-23T19:42:27;97959.81;;;1.10;51.09
83444;BME280;73374;41.170;-96.156;2024-03-23T19:47:30;97958.50;;;1.33;49.43
83444;BME280;73374;41.170;-96.156;2024-03-23T19:52:31;97950.19;;;1.44;49.77
83444;BME280;73374;41.170;-96.156;2024-03-23T19:57:34;97937.19;;;1.33;50.17
83444;BME280;73374;41.170;-96.156;2024-03-23T20:02:37;97915.38;;;0.97;52.07
83444;BME280;73374;41.170;-96.156;2024-03-23T20:07:38;97895.66;;;1.13;52.45
83444;BME280;73374;41.170;-96.156;2024-03-23T20:12:40;97874.75;;;1.07;53.18
83444;BME280;73374;41.170;-96.156;2024-03-23T20:17:43;97885.59;;;0.96;53.97
83444;BME280;73374;41.170;-96.156;2024-03-23T20:22:45;97861.50;;;1.43;52.97
83444;BME280;73374;41.170;-96.156;2024-03-23T20:27:46;97838.63;;;0.97;54.53
83444;BME280;73374;41.170;-96.156;2024-03-23T20:32:49;97806.94;;;1.00;54.71
83444;BME280;73374;41.170;-96.156;2024-03-23T20:37:51;97799.31;;;1.55;53.14
83444;BME280;73374;41.170;-96.156;2024-03-23T20:42:54;97774.94;;;1.35;53.56
83444;BME280;73374;41.170;-96.156;2024-03-23T20:47:57;97794.72;;;1.05;56.35
83444;BME280;73374;41.170;-96.156;2024-03-23T20:52:59;97774.13;;;1.20;57.53
83444;BME280;73374;41.170;-96.156;2024-03-23T20:58:00;97759.25;;;0.99;58.48
83444;BME280;73374;41.170;-96.156;2024-03-23T21:03:04;97747.88;;;1.31;57.69
83444;BME280;73374;41.170;-96.156;2024-03-23T21:08:06;97729.00;;;0.91;59.73
83444;BME280;73374;41.170;-96.156;2024-03-23T21:13:08;97718.28;;;1.27;58.74
83444;BME280;73374;41.170;-96.156;2024-03-23T21:18:11;97707.63;;;0.92;61.54
83444;BME280;73374;41.170;-96.156;2024-03-23T21:23:12;97704.63;;;0.71;62.08
83444;BME280;73374;41.170;-96.156;2024-03-23T21:28:14;97696.13;;;0.56;63.71
83444;BME280;73374;41.170;-96.156;2024-03-23T21:33:18;97654.00;;;0.90;63.05
83444;BME280;73374;41.170;-96.156;2024-03-23T21:38:20;97667.72;;;0.89;63.54
83444;BME280;73374;41.170;-96.156;2024-03-23T21:43:22;97648.56;;;0.54;65.61
83444;BME280;73374;41.170;-96.156;2024-03-23T21:48:25;97650.34;;;0.95;63.90
83444;BME280;73374;41.170;-96.156;2024-03-23T21:53:27;97652.06;;;1.08;63.75
83444;BME280;73374;41.170;-96.156;2024-03-23T21:58:28;97637.34;;;0.71;66.05
83444;BME280;73374;41.170;-96.156;2024-03-23T22:03:32;97626.19;;;0.43;67.33
83444;BME280;73374;41.170;-96.156;2024-03-23T22:08:33;97623.59;;;0.86;65.67
83444;BME280;73374;41.170;-96.156;2024-03-23T22:13:38;97641.63;;;0.42;67.85
83444;BME280;73374;41.170;-96.156;2024-03-23T22:18:48;97645.06;;;0.69;67.43
83444;BME280;73374;41.170;-96.156;2024-03-23T22:23:49;97631.25;;;0.86;65.92
83444;BME280;73374;41.170;-96.156;2024-03-23T22:28:51;97608.16;;;0.87;66.39
83444;BME280;73374;41.170;-96.156;2024-03-23T22:33:54;97574.03;;;1.01;64.30
83444;BME280;73374;41.170;-96.156;2024-03-23T22:38:56;97536.94;;;0.81;65.84
83444;BME280;73374;41.170;-96.156;2024-03-23T22:43:57;97518.47;;;0.90;65.25
83444;BME280;73374;41.170;-96.156;2024-03-23T22:49:01;97505.78;;;1.02;65.24
83444;BME280;73374;41.170;-96.156;2024-03-23T22:54:02;97488.09;;;0.99;65.60
83444;BME280;73374;41.170;-96.156;2024-03-23T22:59:04;97478.22;;;0.80;65.94
83444;BME280;73374;41.170;-96.156;2024-03-23T23:04:07;97458.34;;;0.71;66.27
83444;BME280;73374;41.170;-96.156;2024-03-23T23:09:09;97462.72;;;0.69;65.76
83444;BME280;73374;41.170;-96.156;2024-03-23T23:14:10;97467.25;;;1.17;64.40
83444;BME280;73374;41.170;-96.156;2024-03-23T23:19:14;97467.38;;;0.76;66.57
83444;BME280;73374;41.170;-96.156;2024-03-23T23:24:15;97491.72;;;0.82;66.72
83444;BME280;73374;41.170;-96.156;2024-03-23T23:29:17;97510.56;;;0.67;66.77
83444;BME280;73374;41.170;-96.156;2024-03-23T23:34:20;97496.63;;;0.85;66.77
83444;BME280;73374;41.170;-96.156;2024-03-23T23:39:22;97489.31;;;0.93;65.77
83444;BME280;73374;41.170;-96.156;2024-03-23T23:44:24;97478.13;;;0.81;67.18
83444;BME280;73374;41.170;-96.156;2024-03-23T23:49:27;97476.81;;;0.88;66.54
83444;BME280;73374;41.170;-96.156;2024-03-23T23:54:29;97470.31;;;0.70;67.89
83444;BME280;73374;41.170;-96.156;2024-03-23T23:59:31;97468.69;;;0.82;67.27
